| time (UTC) | temp F | wind direction | speed MPH | gust MPH | rain 1hr in | rain 24hr in | rain mn in | humidity % | barometer mb |
| 20260831201607 | 65 | 225 | 1.0 | 4.0 | 0.00 | 0.15 | 0.15 | 82 | 1022.8 |
| 20260831200044 | 65 | 271 | 1.0 | 6.0 | 0.00 | 0.15 | 0.15 | 81 | 1022.8 |
| 20260831194545 | 66 | 257 | 1.0 | 4.0 | 0.00 | 0.15 | 0.15 | 80 | 1022.5 |
| 20260831193116 | 66 | 267 | 2.0 | 7.0 | 0.00 | 0.15 | 0.15 | 79 | 1022.3 |
| 20260831191544 | 67 | 263 | 2.0 | 9.0 | 0.00 | 0.15 | 0.15 | 77 | 1022.1 |
| 20260831190048 | 67 | 244 | 2.0 | 6.0 | 0.00 | 0.15 | 0.15 | 76 | 1022.0 |
| 20260831184542 | 68 | 305 | 2.0 | 9.0 | 0.00 | 0.15 | 0.15 | 74 | 1021.9 |
| 20260831183054 | 69 | 292 | 2.0 | 8.0 | 0.00 | 0.15 | 0.15 | 73 | 1021.8 |
| 20260831181552 | 70 | 290 | 2.0 | 10.0 | 0.00 | 0.15 | 0.15 | 71 | 1021.8 |
| 20260831180043 | 71 | 277 | 2.0 | 7.0 | 0.00 | 0.15 | 0.15 | 68 | 1021.8 |
| 20260831174549 | 72 | 262 | 2.0 | 9.0 | 0.00 | 0.15 | 0.15 | 68 | 1021.6 |
| 20260831173046 | 72 | 295 | 4.0 | 11.0 | 0.00 | 0.15 | 0.15 | 66 | 1021.7 |
| 20260831171624 | 73 | 287 | 5.0 | 11.0 | 0.00 | 0.15 | 0.15 | 64 | 1021.6 |
| 20260831171542 | 73 | 287 | 5.0 | 11.0 | 0.00 | 0.15 | 0.15 | 64 | 1021.6 |
| 20260831170045 | 72 | 279 | 4.0 | 12.0 | 0.00 | 0.15 | 0.15 | 64 | 1021.7 |
| 20260831164602 | 73 | 277 | 5.0 | 11.0 | 0.00 | 0.15 | 0.15 | 61 | 1021.6 |
| 20260831163043 | 74 | 284 | 5.0 | 11.0 | 0.00 | 0.15 | 0.15 | 60 | 1021.5 |
| 20260831161601 | 75 | 238 | 3.0 | 14.0 | 0.00 | 0.15 | 0.15 | 61 | 1021.5 |
| 20260831160100 | 74 | 217 | 5.0 | 14.0 | 0.00 | 0.15 | 0.15 | 61 | 1021.6 |
| 20260831154613 | 74 | 288 | 4.0 | 11.0 | 0.00 | 0.15 | 0.15 | 60 | 1021.6 |
| 20260831153049 | 75 | 275 | 3.0 | 17.0 | 0.00 | 0.15 | 0.15 | 62 | 1021.5 |
| 20260831151550 | 75 | 275 | 5.0 | 12.0 | 0.00 | 0.15 | 0.15 | 63 | 1021.7 |
| 20260831150049 | 75 | 236 | 4.0 | 17.0 | 0.00 | 0.15 | 0.15 | 63 | 1021.5 |
| 20260831144543 | 75 | 248 | 5.0 | 15.0 | 0.00 | 0.15 | 0.15 | 62 | 1021.4 |
| 20260831143044 | 74 | 302 | 4.0 | 15.0 | 0.00 | 0.15 | 0.15 | 63 | 1021.5 |
| 20260831141551 | 75 | 271 | 6.0 | 15.0 | 0.00 | 0.15 | 0.15 | 64 | 1021.5 |
| 20260831140044 | 75 | 237 | 6.0 | 13.0 | 0.00 | 0.15 | 0.15 | 63 | 1021.4 |
| 20260831134552 | 74 | 247 | 6.0 | 13.0 | 0.00 | 0.15 | 0.15 | 66 | 1021.4 |
| 20260831133051 | 75 | 261 | 4.0 | 11.0 | 0.00 | 0.15 | 0.15 | 67 | 1021.4 |
| 20260831131557 | 74 | 308 | 5.0 | 14.0 | 0.00 | 0.15 | 0.15 | 66 | 1021.4 |
| 20260831130047 | 73 | 261 | 2.0 | 11.0 | 0.00 | 0.15 | 0.15 | 71 | 1021.2 |
| 20260831124544 | 74 | 263 | 4.0 | 12.0 | 0.00 | 0.16 | 0.15 | 70 | 1021.3 |
| 20260831123052 | 73 | 288 | 3.0 | 12.0 | 0.00 | 0.16 | 0.15 | 75 | 1021.2 |
| 20260831120043 | 70 | 272 | 3.0 | 10.0 | 0.04 | 0.16 | 0.15 | 81 | 1021.2 |
| 20260831114544 | 69 | 0 | 2.0 | 9.0 | 0.04 | 0.16 | 0.15 | 86 | 1021.2 |
| 20260831113050 | 68 | 270 | 1.0 | 7.0 | 0.04 | 0.16 | 0.15 | 88 | 1021.2 |
| 20260831111551 | 69 | 274 | 2.0 | 10.0 | 0.00 | 0.11 | 0.11 | 82 | 1021.2 |
| 20260831110044 | 70 | 232 | 3.0 | 13.0 | 0.00 | 0.11 | 0.11 | 79 | 1021.1 |
| 20260831104540 | 70 | 221 | 2.0 | 9.0 | 0.00 | 0.11 | 0.11 | 82 | 1020.9 |
| 20260831103044 | 70 | 246 | 1.0 | 9.0 | 0.00 | 0.11 | 0.11 | 85 | 1020.9 |
| 20260831101546 | 68 | 246 | 4.0 | 8.0 | 0.00 | 0.11 | 0.11 | 88 | 1020.8 |
| 20260831100103 | 66 | 294 | 2.0 | 9.0 | 0.00 | 0.11 | 0.11 | 92 | 1021.0 |
| 20260831094547 | 64 | 0 | 0.0 | 7.0 | 0.00 | 0.11 | 0.11 | 92 | 1021.1 |
| 20260831093056 | 64 | 231 | 1.0 | 11.0 | 0.11 | 0.11 | 0.11 | 91 | 1021.2 |
| 20260831091543 | 66 | 286 | 5.0 | 15.0 | 0.11 | 0.11 | 0.11 | 92 | 1021.0 |
| 20260831090141 | 65 | 284 | 1.0 | 9.0 | 0.10 | 0.11 | 0.10 | 92 | 1020.7 |
| 20260831084544 | 66 | 294 | 1.0 | 12.0 | 0.10 | 0.11 | 0.10 | 86 | 1020.7 |
| 20260831083102 | 68 | 256 | 3.0 | 9.0 | 0.00 | 0.00 | 0.00 | 82 | 1020.4 |
| 20260831081554 | 68 | 255 | 4.0 | 13.0 | 0.00 | 0.00 | 0.00 | 82 | 1020.2 |
| 20260831080121 | 67 | 265 | 4.0 | 12.0 | 0.00 | 0.00 | 0.00 | 86 | 1020.3 |
| 20260831074545 | 66 | 286 | 2.0 | 9.0 | 0.00 | 0.00 | 0.00 | 88 | 1020.1 |
| 20260831073048 | 65 | 248 | 3.0 | 9.0 | 0.00 | 0.00 | 0.00 | 89 | 1020.2 |
| 20260831071546 | 64 | 0 | 2.0 | 7.0 | 0.00 | 0.00 | 0.00 | 92 | 1020.0 |
| 20260831070049 | 63 | 0 | 1.0 | 7.0 | 0.00 | 0.00 | 0.00 | 93 | 1019.8 |
| 20260831064544 | 62 | 0 | 1.0 | 5.0 | 0.00 | 0.00 | 0.00 | 94 | 1019.7 |
| 20260831063046 | 62 | 0 | 2.0 | 5.0 | 0.00 | 0.00 | 0.00 | 94 | 1019.6 |
| 20260831061550 | 61 | 0 | 0.0 | 7.0 | 0.00 | 0.00 | 0.00 | 94 | 1019.4 |
| 20260831060050 | 61 | 0 | 1.0 | 6.0 | 0.00 | 0.00 | 0.00 | 94 | 1019.3 |
| 20260831054544 | 61 | 0 | 0.0 | 4.0 | 0.00 | 0.00 | 0.00 | 94 | 1019.1 |
| 20260831053123 | 61 | 0 | 0.0 | 2.0 | 0.00 | 0.00 | 0.00 | 94 | 1019.0 |
| 20260831051544 | 61 | 0 | 0.0 | 0.0 | 0.00 | 0.00 | 0.00 | 94 | 1019.1 |
| 20260831050525 | 61 | 0 | 0.0 | 3.0 | 0.00 | 0.00 | 0.00 | 93 | 1018.9 |
| 20260831044636 | 62 | 0 | 0.0 | 3.0 | 0.00 | 0.00 | 0.00 | 93 | 1018.7 |
| 20260831043048 | 62 | 247 | 0.0 | 4.0 | 0.00 | 0.00 | 0.00 | 93 | 1018.8 |
| 20260831041544 | 62 | 0 | 0.0 | 3.0 | 0.00 | 0.00 | 0.00 | 93 | 1018.7 |
| 20260831040044 | 63 | 240 | 0.0 | 3.0 | 0.00 | 0.00 | 0.00 | 92 | 1018.7 |
| 20260831034545 | 63 | 248 | 1.0 | 4.0 | 0.00 | 0.00 | 0.00 | 92 | 1018.8 |
| 20260831033054 | 63 | 254 | 2.0 | 4.0 | 0.00 | 0.00 | 0.00 | 92 | 1018.7 |
| 20260831031544 | 63 | 0 | 0.0 | 5.0 | 0.00 | 0.00 | 0.00 | 92 | 1018.8 |
| 20260831030043 | 63 | 219 | 1.0 | 6.0 | 0.00 | 0.00 | 0.00 | 92 | 1018.7 |
| 20260831024548 | 64 | 250 | 2.0 | 7.0 | 0.00 | 0.00 | 0.00 | 92 | 1018.7 |
| 20260831023045 | 64 | 239 | 1.0 | 7.0 | 0.00 | 0.00 | 0.00 | 92 | 1018.7 |
| 20260831021543 | 64 | 239 | 0.0 | 4.0 | 0.00 | 0.00 | 0.00 | 92 | 1018.5 |
| 20260831020044 | 64 | 240 | 2.0 | 8.0 | 0.00 | 0.00 | 0.00 | 91 | 1018.4 |
| 20260831014551 | 65 | 273 | 4.0 | 10.0 | 0.00 | 0.00 | 0.00 | 91 | 1018.5 |
| 20260831013046 | 65 | 216 | 1.0 | 12.0 | 0.00 | 0.00 | 0.00 | 90 | 1018.4 |
| 20260831011552 | 64 | 252 | 3.0 | 9.0 | 0.00 | 0.00 | 0.00 | 90 | 1018.3 |
| 20260831010059 | 64 | 223 | 4.0 | 13.0 | 0.00 | 0.00 | 0.00 | 91 | 1018.4 |
| 20260831004544 | 64 | 223 | 3.0 | 14.0 | 0.00 | 0.01 | 0.00 | 92 | 1018.3 |
| 20260831003044 | 64 | 0 | 0.0 | 2.0 | 0.00 | 0.01 | 0.00 | 92 | 1018.2 |
| 20260831001548 | 63 | 0 | 0.0 | 4.0 | 0.00 | 0.01 | 0.00 | 92 | 1018.2 |
| 20260831000048 | 63 | 0 | 0.0 | 3.0 | 0.00 | 0.01 | 0.00 | 92 | 1018.4 |
| 20260830234633 | 63 | 0 | 0.0 | 2.0 | 0.00 | 0.01 | 0.00 | 92 | 1018.4 |
| 20260830234544 | 63 | 0 | 0.0 | 2.0 | 0.00 | 0.01 | 0.00 | 92 | 1018.4 |
| 20260830233044 | 63 | 0 | 0.0 | 5.0 | 0.00 | 0.01 | 0.00 | 92 | 1018.5 |
| 20260830231549 | 63 | 187 | 0.0 | 3.0 | 0.00 | 0.01 | 0.00 | 92 | 1018.5 |
| 20260830230046 | 62 | 0 | 0.0 | 1.0 | 0.00 | 0.01 | 0.00 | 92 | 1018.5 |
| 20260830224543 | 62 | 0 | 0.0 | 2.0 | 0.00 | 0.03 | 0.00 | 91 | 1018.6 |
| 20260830223043 | 63 | 0 | 0.0 | 3.0 | 0.00 | 0.03 | 0.00 | 90 | 1018.5 |
| 20260830221547 | 63 | 0 | 0.0 | 4.0 | 0.00 | 0.03 | 0.00 | 90 | 1018.6 |
| 20260830220046 | 63 | 0 | 0.0 | 4.0 | 0.00 | 0.03 | 0.00 | 90 | 1018.6 |
| 20260830214544 | 63 | 239 | 1.0 | 8.0 | 0.00 | 0.03 | 0.03 | 89 | 1018.3 |
| 20260830213058 | 64 | 0 | 0.0 | 2.0 | 0.00 | 0.03 | 0.03 | 88 | 1018.2 |
| 20260830211542 | 64 | 0 | 0.0 | 3.0 | 0.00 | 0.03 | 0.03 | 88 | 1018.3 |
| 20260830210046 | 64 | 0 | 0.0 | 7.0 | 0.00 | 0.03 | 0.03 | 87 | 1018.2 |
| 20260830204547 | 65 | 236 | 0.0 | 4.0 | 0.00 | 0.03 | 0.03 | 86 | 1018.1 |
| 20260830203046 | 65 | 254 | 0.0 | 4.0 | 0.00 | 0.03 | 0.03 | 86 | 1018.0 |